Terminal Aerodrome Forecast
Issued by NWS Cleveland, OH

Home | Current Version | Previous Version | Text Only | Print | Product List | Glossary On
Versions: 1 2 3 4 5 6 7 8 9 10 11 12 13 14 15 16 17
000
FTUS41 KCLE 141200 AAA
TAFCAK
TAF AMD
KCAK 141202Z 1412/1512 20004KT 6SM BR OVC008
     FM141400 22006KT P6SM BKN015 OVC120
     FM141700 22006KT P6SM VCSH BKN035 OVC120
     FM142000 23008KT P6SM BKN045
      TEMPO 1422/1501 3SM TSRA OVC035CB
     FM150500 22006KT P6SM BKN050=

USA.gov is the U.S. government's official web portal to all federal, state and local government web resources and services.